Hovedside
METAR-TAF:

METAR-TAF

Lufthavner :

Kairo, Egypt

breddegrad: 30-08N, lengdegrad: 031-24E, høyde over havet: 64 m

Gjeldene værobservasjon

Denne rapporten ble laget for 8 minutter siden, klokken 15:30 UTC
Vind 7 kt fra Nord-nordvest
Temperatur 32°C
Luftfuktighet 32%
Trykk 1011 hPa
Sikt 10 km eller mer
ingen skyer under 1500 m og ingen bygeskyer

METAR: HECA 201530Z 33007KT CAVOK 32/13 Q1011 NOSIG

Tid: 17:38 (15:38 UTC)

Varsel

Denne rapporten ble laget for 4 timer og 38 minutter siden, klokken 11:00 UTC
Varsel gyldig fra 20. klokken 12 UTC til 21. klokken 18 UTC
Vind 8 kt fra Nord
Sikt 10 km eller mer
Få skyer i en høyde av 2500 ft
Midlertidig
fra 21. klokken 00 UTC til 21. klokken 06 UTC
Vind 3 kt fra skiftende retning
Sikt: 4000 m
dis

TAF: HECA 201100Z 2012/2118 36008KT 9999 FEW025 TEMPO 2100/2106 VRB03KT 4000 BR NSC

Værobservasjoner og værvarsel for over 4000 flyplasser (METAR- og TAF-rapporter).

Tilgjengelige stasjoner er representert av de røde og gule prikkene på kartet.

Hold musepekeren over prikken for å se navnet på stasjonen.

Klikk så for å se værobservasjoner og -varsler.

For å forandre kartet kan du klikke på den grønne knappen med svart kryss for å zoome inn, på den grønne knappen med strek for å zoome ut, eller på de grønne pilene for å se tilstøtende kart.


METAR-TAF: